createdAt,value
2018-05-29T00:00:27.395Z,99.90
2018-05-29T00:02:54.868Z,99.90
2018-05-29T00:05:22.894Z,99.90
2018-05-29T00:07:50.354Z,99.90
2018-05-29T00:10:17.798Z,99.90
2018-05-29T00:12:45.267Z,99.90
2018-05-29T00:15:12.711Z,99.90
2018-05-29T00:17:40.948Z,99.90
2018-05-29T00:20:08.417Z,99.90
2018-05-29T00:22:35.891Z,99.90
2018-05-29T00:25:03.348Z,99.90
2018-05-29T00:27:31.651Z,99.90
2018-05-29T00:29:59.122Z,99.90
2018-05-29T00:32:26.608Z,99.90
2018-05-29T00:34:54.074Z,99.90
2018-05-29T00:37:21.539Z,99.90
2018-05-29T00:39:49.016Z,99.90
2018-05-29T00:42:16.797Z,99.90
2018-05-29T00:44:44.336Z,99.90
2018-05-29T00:47:12.603Z,99.90
2018-05-29T00:49:40.174Z,99.90
2018-05-29T00:52:07.755Z,99.90
2018-05-29T00:54:35.249Z,99.90
2018-05-29T00:57:02.731Z,99.90
2018-05-29T00:59:30.411Z,99.90
2018-05-29T01:01:57.864Z,99.90
2018-05-29T01:04:25.322Z,99.90
2018-05-29T01:06:52.797Z,99.90
2018-05-29T01:09:20.286Z,99.90
2018-05-29T01:11:47.746Z,99.90
2018-05-29T01:14:15.310Z,99.90
2018-05-29T01:16:42.795Z,99.90
2018-05-29T01:19:10.254Z,99.90
2018-05-29T01:21:37.706Z,99.90
2018-05-29T01:24:05.960Z,99.90
2018-05-29T01:26:33.431Z,99.90
2018-05-29T01:29:00.903Z,99.90
2018-05-29T01:31:28.375Z,99.90
2018-05-29T01:33:55.896Z,99.90
2018-05-29T01:36:23.356Z,99.90
2018-05-29T01:38:50.857Z,99.90
2018-05-29T01:41:18.770Z,99.90
2018-05-29T01:43:46.238Z,99.90
2018-05-29T01:46:13.713Z,99.90
2018-05-29T01:48:41.168Z,99.90
2018-05-29T01:51:09.408Z,99.90
2018-05-29T01:53:36.865Z,99.90
2018-05-29T01:56:04.353Z,99.90
2018-05-29T01:58:31.815Z,99.90
2018-05-29T02:00:59.314Z,99.90
2018-05-29T02:03:26.802Z,99.90
2018-05-29T02:05:58.438Z,99.90
2018-05-29T02:08:29.338Z,99.90
2018-05-29T02:10:56.844Z,99.90
2018-05-29T02:13:24.346Z,99.90
2018-05-29T02:15:51.859Z,99.90
2018-05-29T02:18:19.326Z,99.90
2018-05-29T02:20:46.774Z,99.90
2018-05-29T02:23:14.245Z,99.90
2018-05-29T02:25:41.690Z,99.90
2018-05-29T02:28:09.933Z,99.90
2018-05-29T02:30:37.391Z,99.90
2018-05-29T02:33:04.899Z,99.90
2018-05-29T02:35:32.357Z,99.90
2018-05-29T02:38:00.796Z,99.90
2018-05-29T02:40:29.021Z,99.90
2018-05-29T02:42:56.502Z,99.90
2018-05-29T02:45:23.951Z,99.90
2018-05-29T02:47:52.198Z,99.90
2018-05-29T02:50:19.664Z,99.90
2018-05-29T02:52:47.107Z,99.90
2018-05-29T02:55:14.588Z,99.90
2018-05-29T02:57:42.059Z,99.90
2018-05-29T03:00:10.284Z,99.90
2018-05-29T03:02:37.747Z,99.90
2018-05-29T03:05:05.204Z,99.90
2018-05-29T03:07:32.730Z,99.90
2018-05-29T03:10:00.319Z,99.90
2018-05-29T03:12:27.774Z,99.90
2018-05-29T03:14:55.282Z,99.90
2018-05-29T03:17:22.871Z,99.90
2018-05-29T03:19:51.120Z,99.90
2018-05-29T03:22:18.571Z,99.90
2018-05-29T03:24:46.051Z,99.90
2018-05-29T03:27:13.524Z,99.90
2018-05-29T03:29:40.969Z,99.90
2018-05-29T03:32:09.214Z,99.90
2018-05-29T03:34:36.698Z,99.90
2018-05-29T03:37:04.195Z,99.90
2018-05-29T03:39:31.645Z,99.90
2018-05-29T03:41:59.098Z,99.90
2018-05-29T03:44:26.552Z,99.90
2018-05-29T03:46:54.027Z,99.90
2018-05-29T03:49:21.506Z,99.90
2018-05-29T03:51:48.982Z,99.90
2018-05-29T03:54:16.427Z,99.90
2018-05-29T03:56:44.706Z,99.90
2018-05-29T03:59:12.147Z,99.90
2018-05-29T04:01:39.622Z,99.90
2018-05-29T04:04:07.072Z,99.90
2018-05-29T04:06:34.544Z,99.90
2018-05-29T04:09:02.141Z,99.90
2018-05-29T04:11:29.614Z,99.90
2018-05-29T04:13:57.098Z,99.90
2018-05-29T04:16:25.358Z,99.90
2018-05-29T04:18:52.842Z,99.90
2018-05-29T04:21:20.303Z,99.90
2018-05-29T04:23:47.766Z,99.90
2018-05-29T04:26:15.985Z,99.90
2018-05-29T04:28:43.460Z,99.90
2018-05-29T04:31:10.929Z,99.90
2018-05-29T04:33:39.000Z,99.90
2018-05-29T04:36:07.225Z,99.90
2018-05-29T04:38:34.707Z,99.90
2018-05-29T04:41:02.169Z,99.90
2018-05-29T04:43:29.655Z,99.90
2018-05-29T04:45:57.113Z,99.90
2018-05-29T04:48:24.588Z,99.90
2018-05-29T04:50:52.046Z,99.90
2018-05-29T04:53:20.270Z,99.90
2018-05-29T04:55:51.502Z,99.90
2018-05-29T04:58:19.737Z,99.90
2018-05-29T05:00:47.211Z,99.90
2018-05-29T05:03:14.754Z,99.90
2018-05-29T05:05:42.279Z,99.90
2018-05-29T05:08:09.861Z,99.90
2018-05-29T05:10:37.342Z,99.90
2018-05-29T05:13:04.798Z,99.90
2018-05-29T05:15:32.269Z,99.90
2018-05-29T05:18:03.529Z,99.90
2018-05-29T05:20:31.017Z,99.90
2018-05-29T05:22:58.522Z,99.90
2018-05-29T05:25:25.959Z,99.90
2018-05-29T05:27:53.419Z,99.90
2018-05-29T05:30:21.208Z,99.90
2018-05-29T05:32:48.698Z,99.90
2018-05-29T05:35:16.161Z,99.90
2018-05-29T05:37:43.650Z,99.90
2018-05-29T05:40:11.126Z,99.90
2018-05-29T05:42:38.583Z,99.90
2018-05-29T05:45:06.117Z,99.90
2018-05-29T05:47:34.346Z,99.90
2018-05-29T05:50:05.538Z,99.90
2018-05-29T05:52:33.008Z,99.90
2018-05-29T05:55:04.191Z,99.90
2018-05-29T05:57:31.661Z,99.90
2018-05-29T05:59:59.129Z,99.90
2018-05-29T06:02:26.618Z,99.90
2018-05-29T06:04:54.063Z,99.90
2018-05-29T06:07:21.627Z,99.90
2018-05-29T06:09:49.081Z,99.90
2018-05-29T06:12:16.563Z,99.90
2018-05-29T06:14:44.342Z,99.90
2018-05-29T06:17:11.819Z,99.90
2018-05-29T06:19:39.278Z,99.90
2018-05-29T06:22:06.755Z,99.60
2018-05-29T06:24:34.232Z,99.20
2018-05-29T06:27:02.459Z,98.20
2018-05-29T06:29:29.915Z,98.20
2018-05-29T06:31:57.394Z,98.20
2018-05-29T06:34:24.874Z,98.00
2018-05-29T06:36:52.358Z,97.20
2018-05-29T06:39:19.838Z,95.90
2018-05-29T06:41:47.291Z,94.80
2018-05-29T06:44:14.769Z,94.20
2018-05-29T06:46:42.569Z,92.90
2018-05-29T06:49:10.038Z,91.60
2018-05-29T06:51:37.489Z,90.40
2018-05-29T06:54:05.023Z,87.40
2018-05-29T06:56:32.497Z,88.80
2018-05-29T06:59:03.268Z,88.20
2018-05-29T07:01:31.487Z,86.80
2018-05-29T07:03:59.098Z,86.80
2018-05-29T07:06:26.841Z,85.90
2018-05-29T07:08:54.437Z,83.60
2018-05-29T07:11:21.899Z,86.50
2018-05-29T07:13:49.379Z,83.90
2018-05-29T07:18:49.727Z,78.20
2018-05-29T07:21:18.111Z,76.40
2018-05-29T07:23:45.587Z,76.40
2018-05-29T07:26:14.091Z,74.90
2018-05-29T07:28:42.316Z,75.90
2018-05-29T07:31:09.803Z,75.90
2018-05-29T07:33:37.279Z,79.60
2018-05-29T07:36:04.806Z,80.30
2018-05-29T07:38:33.071Z,82.40
2018-05-29T07:41:00.551Z,82.40
2018-05-29T07:43:28.081Z,85.00
2018-05-29T07:45:56.531Z,90.80
2018-05-29T07:48:24.009Z,91.80
2018-05-29T07:50:51.532Z,92.60
2018-05-29T07:53:19.099Z,92.90
2018-05-29T07:55:46.957Z,92.70
2018-05-29T07:58:14.591Z,92.40
2018-05-29T08:00:42.117Z,91.70
2018-05-29T08:03:10.714Z,89.40
2018-05-29T08:05:38.166Z,89.40
2018-05-29T08:08:05.621Z,86.90
2018-05-29T08:10:33.088Z,86.60
2018-05-29T08:13:00.603Z,82.20
2018-05-29T08:15:28.074Z,76.40
2018-05-29T08:17:55.551Z,71.50
2018-05-29T08:20:23.043Z,67.50
2018-05-29T08:22:51.299Z,63.90
2018-05-29T08:25:18.917Z,63.90
2018-05-29T08:27:47.203Z,60.30
2018-05-29T08:30:15.456Z,60.90
2018-05-29T08:32:43.009Z,61.70
2018-05-29T08:35:10.532Z,61.20
2018-05-29T08:37:38.034Z,61.50
2018-05-29T08:40:06.407Z,60.50
2018-05-29T08:42:34.127Z,60.30
2018-05-29T08:45:01.522Z,60.10
2018-05-29T08:47:28.996Z,59.60
2018-05-29T08:49:56.462Z,59.20
2018-05-29T08:52:23.943Z,60.60
2018-05-29T08:54:51.434Z,60.20
2018-05-29T08:57:21.567Z,59.50
2018-05-29T08:59:49.099Z,59.80
2018-05-29T09:02:16.575Z,58.90
2018-05-29T09:07:16.990Z,57.60
2018-05-29T09:09:44.463Z,56.30
2018-05-29T09:12:11.959Z,54.80
2018-05-29T09:14:39.454Z,54.20
2018-05-29T09:17:06.944Z,54.40
2018-05-29T09:19:35.196Z,55.10
2018-05-29T09:22:02.686Z,55.10
2018-05-29T09:24:30.162Z,55.10
2018-05-29T09:26:57.795Z,55.40
2018-05-29T09:29:31.184Z,55.40
2018-05-29T09:31:59.509Z,55.40
2018-05-29T09:34:27.066Z,55.40
2018-05-29T09:36:54.569Z,55.00
2018-05-29T09:39:22.035Z,56.40
2018-05-29T09:41:49.512Z,58.20
2018-05-29T09:44:17.036Z,58.70
2018-05-29T09:46:44.550Z,56.80
2018-05-29T09:49:12.992Z,54.90
2018-05-29T09:51:40.456Z,54.90
2018-05-29T09:54:08.148Z,55.00
2018-05-29T09:56:35.671Z,55.80
2018-05-29T09:59:03.170Z,55.80
2018-05-29T10:01:30.670Z,55.60
2018-05-29T10:04:00.673Z,55.50
2018-05-29T10:06:28.466Z,53.80
2018-05-29T10:09:20.110Z,53.30
2018-05-29T10:11:47.705Z,52.40
2018-05-29T10:14:15.386Z,52.90
2018-05-29T10:16:42.857Z,54.70
2018-05-29T10:19:10.308Z,56.50
2018-05-29T10:21:37.798Z,55.20
2018-05-29T10:24:05.261Z,54.30
2018-05-29T10:26:33.489Z,54.60
2018-05-29T10:29:00.935Z,54.60
2018-05-29T10:31:28.411Z,55.10
2018-05-29T10:33:55.886Z,54.80
2018-05-29T10:36:23.347Z,56.10
2018-05-29T10:38:51.559Z,56.70
2018-05-29T10:41:19.067Z,56.70
2018-05-29T10:43:46.532Z,55.60
2018-05-29T10:46:14.737Z,54.70
2018-05-29T10:48:42.216Z,54.70
2018-05-29T10:51:09.669Z,54.90
2018-05-29T10:53:37.142Z,55.40
2018-05-29T10:56:04.587Z,56.30
2018-05-29T10:58:32.042Z,55.80
2018-05-29T11:00:59.509Z,56.10
2018-05-29T11:03:26.979Z,56.60
2018-05-29T11:05:55.231Z,58.60
2018-05-29T11:08:22.695Z,58.60
2018-05-29T11:10:50.138Z,59.10
2018-05-29T11:13:17.607Z,59.80
2018-05-29T11:15:45.816Z,61.40
2018-05-29T11:18:13.290Z,61.40
2018-05-29T11:20:40.748Z,61.10
2018-05-29T11:23:08.231Z,61.10
2018-05-29T11:25:35.688Z,63.30
2018-05-29T11:28:03.155Z,63.30
2018-05-29T11:30:31.386Z,63.00
2018-05-29T11:32:58.866Z,63.00
2018-05-29T11:35:26.315Z,64.00
2018-05-29T11:37:53.757Z,64.80
2018-05-29T11:40:21.230Z,64.20
2018-05-29T11:42:48.695Z,63.90
2018-05-29T11:45:16.965Z,65.60
2018-05-29T11:47:44.407Z,65.60
2018-05-29T11:50:11.855Z,67.60
2018-05-29T11:52:39.298Z,68.90
2018-05-29T11:55:06.766Z,71.00
2018-05-29T11:57:34.222Z,71.10
2018-05-29T12:00:01.716Z,72.90
2018-05-29T12:02:29.176Z,73.70
2018-05-29T12:04:56.621Z,74.10
2018-05-29T12:07:24.084Z,74.50
2018-05-29T12:09:51.540Z,74.80
2018-05-29T12:12:25.466Z,75.40
2018-05-29T12:14:52.947Z,75.80
2018-05-29T12:17:21.123Z,76.10
2018-05-29T12:19:48.568Z,76.10
2018-05-29T12:22:16.106Z,76.60
2018-05-29T12:24:43.503Z,76.10
2018-05-29T12:27:11.731Z,78.50
2018-05-29T12:29:39.211Z,78.50
2018-05-29T12:32:06.689Z,78.40
2018-05-29T12:34:34.906Z,79.20
2018-05-29T12:37:02.368Z,79.20
2018-05-29T12:39:29.836Z,78.80
2018-05-29T12:41:57.300Z,80.10
2018-05-29T12:44:25.818Z,82.20
2018-05-29T12:46:53.468Z,82.10
2018-05-29T12:49:21.860Z,85.40
2018-05-29T12:51:49.403Z,85.40
2018-05-29T12:54:16.869Z,85.40
2018-05-29T12:56:44.315Z,85.00
2018-05-29T12:59:11.814Z,85.70
2018-05-29T13:01:39.228Z,86.50
2018-05-29T13:04:06.703Z,86.70
2018-05-29T13:06:34.164Z,87.40
2018-05-29T13:09:01.646Z,86.50
2018-05-29T13:11:29.127Z,87.10
2018-05-29T13:13:57.382Z,89.70
2018-05-29T13:16:24.864Z,89.70
2018-05-29T13:18:52.344Z,90.10
2018-05-29T13:21:19.814Z,90.40
2018-05-29T13:23:47.288Z,91.40
2018-05-29T13:26:14.746Z,91.50
2018-05-29T13:28:42.189Z,90.60
2018-05-29T13:31:09.667Z,90.00
2018-05-29T13:33:37.889Z,86.80
2018-05-29T13:36:05.353Z,86.90
2018-05-29T13:38:32.811Z,84.90
2018-05-29T13:41:00.290Z,85.60
2018-05-29T13:43:27.735Z,85.60
2018-05-29T13:45:55.208Z,85.40
2018-05-29T13:48:23.423Z,83.70
2018-05-29T13:50:50.904Z,83.70
2018-05-29T13:53:18.346Z,83.10
2018-05-29T13:55:45.813Z,82.70
2018-05-29T13:58:13.263Z,83.50
2018-05-29T14:00:40.742Z,83.30
2018-05-29T14:03:08.260Z,85.10
2018-05-29T14:05:35.750Z,85.30
2018-05-29T14:08:03.186Z,84.70
2018-05-29T14:10:30.622Z,84.40
2018-05-29T14:12:58.108Z,86.40
2018-05-29T14:15:25.565Z,88.30
2018-05-29T14:17:53.227Z,89.50
2018-05-29T14:20:20.671Z,90.50
2018-05-29T14:22:48.175Z,90.40
2018-05-29T14:25:15.616Z,89.10
2018-05-29T14:27:43.850Z,88.10
2018-05-29T14:30:11.302Z,88.00
2018-05-29T14:32:38.809Z,86.30
2018-05-29T14:35:06.292Z,85.60
2018-05-29T14:37:33.763Z,85.60
2018-05-29T14:40:01.221Z,86.70
2018-05-29T14:42:28.713Z,86.40
2018-05-29T14:44:56.966Z,88.20
2018-05-29T14:47:25.219Z,89.40
2018-05-29T14:49:52.696Z,89.50
2018-05-29T14:52:20.935Z,91.60
2018-05-29T14:54:48.398Z,91.60
2018-05-29T14:57:15.850Z,92.90
2018-05-29T14:59:43.340Z,93.30
2018-05-29T15:02:11.574Z,94.70
2018-05-29T15:04:39.143Z,94.70
2018-05-29T15:07:06.607Z,94.80
2018-05-29T15:09:34.070Z,95.20
2018-05-29T15:12:02.303Z,96.50
2018-05-29T15:14:29.766Z,96.50
2018-05-29T15:16:57.281Z,97.30
2018-05-29T15:19:24.741Z,97.90
2018-05-29T15:21:52.223Z,98.50
2018-05-29T15:24:19.671Z,98.80
2018-05-29T15:26:47.130Z,99.20
2018-05-29T15:29:14.579Z,99.40
2018-05-29T15:31:42.078Z,99.50
2018-05-29T15:34:10.287Z,99.70
2018-05-29T15:36:37.778Z,99.70
2018-05-29T15:39:05.252Z,99.90
2018-05-29T15:41:33.503Z,99.90
2018-05-29T15:44:00.959Z,99.90
2018-05-29T15:46:28.440Z,99.90
2018-05-29T15:48:56.676Z,99.90
2018-05-29T15:51:24.139Z,99.90
2018-05-29T15:53:51.616Z,99.90
2018-05-29T15:56:19.090Z,99.90
2018-05-29T15:58:46.554Z,99.90
2018-05-29T16:01:14.020Z,99.90
2018-05-29T16:03:41.481Z,99.90
2018-05-29T16:06:08.946Z,99.90
2018-05-29T16:08:36.414Z,99.90
2018-05-29T16:11:03.870Z,99.90
2018-05-29T16:13:31.471Z,99.90
2018-05-29T16:15:59.704Z,99.90
2018-05-29T16:18:27.189Z,99.90
2018-05-29T16:20:54.634Z,99.90
2018-05-29T16:23:22.879Z,99.90
2018-05-29T16:25:50.349Z,99.90
2018-05-29T16:28:18.566Z,99.90
2018-05-29T16:30:46.062Z,99.90
2018-05-29T16:33:13.595Z,99.90
2018-05-29T16:35:41.068Z,99.90
2018-05-29T16:38:10.143Z,99.90
2018-05-29T16:40:37.656Z,99.90
2018-05-29T16:43:05.081Z,99.90
2018-05-29T16:45:32.544Z,99.90
2018-05-29T16:47:59.987Z,99.90
2018-05-29T16:50:27.472Z,99.90
2018-05-29T16:52:55.699Z,99.90
2018-05-29T16:55:23.874Z,99.90
2018-05-29T16:57:51.334Z,99.90
2018-05-29T17:00:18.804Z,99.90
2018-05-29T17:02:46.271Z,99.90
2018-05-29T17:05:14.478Z,99.90
2018-05-29T17:07:41.949Z,99.90
2018-05-29T17:10:09.395Z,99.90
2018-05-29T17:12:36.867Z,99.90
2018-05-29T17:15:04.353Z,99.90
2018-05-29T17:17:31.803Z,99.90
2018-05-29T17:20:00.042Z,99.90
2018-05-29T17:22:27.524Z,99.90
2018-05-29T17:24:54.982Z,99.90
2018-05-29T17:27:23.303Z,99.90
2018-05-29T17:29:50.743Z,99.90
2018-05-29T17:32:18.198Z,99.90
2018-05-29T17:34:45.684Z,99.90
2018-05-29T17:37:13.125Z,99.90
2018-05-29T17:39:40.604Z,99.90
2018-05-29T17:42:08.487Z,99.90
2018-05-29T17:44:36.727Z,99.90
2018-05-29T17:47:04.180Z,99.90
2018-05-29T17:49:31.854Z,99.90
2018-05-29T17:52:00.229Z,99.90
2018-05-29T17:54:27.935Z,99.90
2018-05-29T17:56:55.452Z,99.90
2018-05-29T17:59:22.898Z,99.90
2018-05-29T18:01:50.552Z,99.90
2018-05-29T18:04:18.208Z,99.90
2018-05-29T18:06:45.899Z,99.90
2018-05-29T18:09:13.375Z,99.90
2018-05-29T18:11:41.108Z,99.90
2018-05-29T18:14:09.518Z,99.90
2018-05-29T18:16:36.993Z,99.90
2018-05-29T18:19:04.609Z,99.90
2018-05-29T18:21:32.098Z,99.90
2018-05-29T18:23:59.554Z,99.90
2018-05-29T18:26:27.191Z,99.90
2018-05-29T18:28:54.663Z,99.90
2018-05-29T18:31:22.223Z,99.90
2018-05-29T18:33:49.796Z,99.90
2018-05-29T18:36:17.328Z,99.90
2018-05-29T18:38:44.848Z,99.90
2018-05-29T18:41:13.151Z,99.90
2018-05-29T18:43:40.638Z,99.90
2018-05-29T18:46:08.139Z,99.90
2018-05-29T18:48:36.382Z,99.90
2018-05-29T18:51:03.835Z,99.90
2018-05-29T18:53:31.315Z,99.90
2018-05-29T18:55:58.779Z,99.90
2018-05-29T18:58:26.305Z,99.90
2018-05-29T19:00:53.756Z,99.90
2018-05-29T19:03:21.217Z,99.90
2018-05-29T19:05:48.700Z,99.90
2018-05-29T19:08:16.198Z,99.90
2018-05-29T19:10:43.671Z,99.90
2018-05-29T19:13:11.118Z,99.90
2018-05-29T19:15:38.597Z,99.90
2018-05-29T19:18:06.040Z,99.90
2018-05-29T19:20:33.525Z,99.90
2018-05-29T19:23:01.774Z,99.90
2018-05-29T19:25:29.227Z,99.90
2018-05-29T19:27:56.685Z,99.90
2018-05-29T19:30:24.924Z,99.90
2018-05-29T19:32:52.377Z,99.90
2018-05-29T19:35:19.856Z,99.90
2018-05-29T19:37:48.017Z,99.90
2018-05-29T19:40:15.484Z,99.90
2018-05-29T19:42:42.978Z,99.90
2018-05-29T19:45:10.477Z,99.90
2018-05-29T19:47:37.919Z,99.90
2018-05-29T19:50:05.475Z,99.90
2018-05-29T19:52:32.967Z,99.90
2018-05-29T19:55:00.429Z,99.90
2018-05-29T19:57:27.894Z,99.90
2018-05-29T19:59:55.351Z,99.90
2018-05-29T20:02:22.855Z,99.90
2018-05-29T20:04:50.299Z,99.90
2018-05-29T20:16:57.784Z,99.90
2018-05-29T20:19:26.012Z,99.90
2018-05-29T20:21:53.468Z,99.90
2018-05-29T20:24:21.583Z,99.90
2018-05-29T20:26:49.857Z,99.90
2018-05-29T20:29:18.137Z,99.90
2018-05-29T20:31:46.348Z,99.90
2018-05-29T20:34:13.830Z,99.90
2018-05-29T20:36:41.303Z,99.90
2018-05-29T20:39:08.737Z,99.90
2018-05-29T20:41:36.248Z,99.90
2018-05-29T20:44:03.714Z,99.90
2018-05-29T20:46:31.163Z,99.90
2018-05-29T20:48:58.618Z,99.90
2018-05-29T20:51:26.125Z,99.90
2018-05-29T20:53:53.590Z,99.90
2018-05-29T20:56:21.853Z,99.90
2018-05-29T20:58:49.300Z,99.90
2018-05-29T21:01:16.793Z,99.90
2018-05-29T21:03:44.234Z,99.90
2018-05-29T21:06:12.505Z,99.90
2018-05-29T21:08:40.729Z,99.90
2018-05-29T21:11:08.184Z,99.90
2018-05-29T21:13:35.675Z,99.90
2018-05-29T21:16:03.111Z,99.90
2018-05-29T21:18:30.609Z,99.90
2018-05-29T21:20:58.999Z,99.90
2018-05-29T21:23:26.622Z,99.90
2018-05-29T21:25:54.353Z,99.90
2018-05-29T21:28:21.925Z,99.90
2018-05-29T21:30:49.766Z,99.90
2018-05-29T21:33:18.530Z,99.90
2018-05-29T21:35:46.133Z,99.90
2018-05-29T21:38:15.216Z,99.90
2018-05-29T21:40:46.897Z,99.90
2018-05-29T21:43:20.365Z,99.90
2018-05-29T21:45:50.116Z,99.90
2018-05-29T21:48:18.459Z,99.90
2018-05-29T21:50:46.687Z,99.90
2018-05-29T21:53:14.197Z,99.90
2018-05-29T21:55:41.647Z,99.90
2018-05-29T21:58:09.883Z,99.90
2018-05-29T22:00:37.367Z,99.90
2018-05-29T22:03:04.817Z,99.90
2018-05-29T22:05:33.063Z,99.90
2018-05-29T22:08:00.512Z,99.90
2018-05-29T22:10:28.004Z,99.90
2018-05-29T22:12:56.230Z,99.90
2018-05-29T22:15:23.741Z,99.90
2018-05-29T22:17:51.186Z,99.90
2018-05-29T22:20:19.428Z,99.90
2018-05-29T22:22:46.881Z,99.90
2018-05-29T22:25:14.342Z,99.90
2018-05-29T22:27:41.818Z,99.90
2018-05-29T22:30:09.347Z,99.90
2018-05-29T22:32:36.810Z,99.90
2018-05-29T22:35:04.304Z,99.90
2018-05-29T22:37:31.768Z,99.90
2018-05-29T22:39:59.379Z,99.90
2018-05-29T22:42:26.837Z,99.90
2018-05-29T22:44:55.082Z,99.90
2018-05-29T22:47:22.567Z,99.90
2018-05-29T22:49:50.028Z,99.90
2018-05-29T22:52:18.291Z,99.90
2018-05-29T22:54:46.541Z,99.90
2018-05-29T22:57:14.052Z,99.90
2018-05-29T22:59:41.494Z,99.90
2018-05-29T23:02:09.795Z,99.90
2018-05-29T23:04:37.283Z,99.90
2018-05-29T23:07:04.736Z,99.90
2018-05-29T23:09:32.202Z,99.90
2018-05-29T23:11:59.668Z,99.90
2018-05-29T23:14:27.911Z,99.90
2018-05-29T23:16:55.349Z,99.90
2018-05-29T23:19:22.819Z,99.90
2018-05-29T23:21:50.273Z,99.90
2018-05-29T23:24:17.734Z,99.90
2018-05-29T23:26:45.218Z,99.90
2018-05-29T23:29:13.877Z,99.90
2018-05-29T23:31:41.312Z,99.90
2018-05-29T23:34:08.786Z,99.90
2018-05-29T23:36:36.253Z,99.90
2018-05-29T23:39:05.325Z,99.90
2018-05-29T23:41:34.626Z,99.90
2018-05-29T23:44:02.092Z,99.90
2018-05-29T23:46:30.320Z,99.90
2018-05-29T23:48:57.767Z,99.90
2018-05-29T23:51:25.215Z,99.90
2018-05-29T23:53:52.673Z,99.90
2018-05-29T23:56:20.134Z,99.90
2018-05-29T23:58:47.579Z,99.90
